»·PEaware :: SWA1097 KLAS-KSAN

SWA1097 :: KLAS-KSAN

FLIGHT INFORMATION

Flight Status: Arrived
Operator:
Southwest Airlines
More flights by this operator :: More flights under this callsign
Pilot: Adam A. (5112)
Aircraft: BOEING 737-300
(B733)
More flights by this aircraft type
Origin: KLAS McCarran Intl
United States
Destination: KSAN San Diego Intl-Lindbergh
United States
More flights between these airports :: More routes between these airports
Route: BOACH6 TNP LYNDI4
File this flight plan on PilotEdge
Remarks:
Altitude:
(Current/Filed)
28,000ft
Speed:
(Current/Filed)
434kts
Departed: 03-Jun-16 07:52 PM
Arrived: 03-Jun-16 08:39 PM
Distance/Time
Traveled:
225nm/0:47
Distance/Time
To Go:
Arrived

Flight Plot

Page will automatically refresh every two minutes.


Map Options




Map Legend


Flown Route
Filed Route
Departure Airport
Arrival Airport
Navaid (VOR, NDB)
Fix

Horizontal Profiles

Position Reports

Time Latitude Longitude Heading Altitude Ground
Speed
03-Jun-16 19:16 36.079942 -115.147089 57 2189ft 0kts
03-Jun-16 19:17 36.079942 -115.147089 57 2189ft 0kts
03-Jun-16 19:18 36.079942 -115.147089 57 2189ft 0kts
03-Jun-16 19:19 36.079942 -115.147089 57 2189ft 0kts
03-Jun-16 19:20 36.079942 -115.147089 57 2189ft 0kts
03-Jun-16 19:22 36.079942 -115.147089 57 2189ft 0kts
03-Jun-16 19:23 36.079942 -115.147089 57 2189ft 0kts
03-Jun-16 19:24 36.079942 -115.147089 57 2189ft 0kts
03-Jun-16 19:25 36.079942 -115.147089 57 2189ft 0kts
03-Jun-16 19:26 36.079942 -115.147089 57 2189ft 0kts
03-Jun-16 19:27 36.079942 -115.147089 57 2189ft 0kts
03-Jun-16 19:28 36.079942 -115.147089 57 2189ft 0kts
03-Jun-16 19:29 36.079942 -115.147089 57 2189ft 0kts
03-Jun-16 19:30 36.079942 -115.147089 57 2189ft 0kts
03-Jun-16 19:31 36.079942 -115.147089 57 2189ft 0kts
03-Jun-16 19:32 36.079942 -115.147089 57 2189ft 0kts
03-Jun-16 19:33 36.079942 -115.147089 57 2189ft 0kts
03-Jun-16 19:34 36.079942 -115.147089 57 2189ft 0kts
03-Jun-16 19:35 36.079942 -115.147089 57 2189ft 0kts
03-Jun-16 19:36 36.079942 -115.147089 57 2189ft 0kts
03-Jun-16 19:37 36.079942 -115.147089 57 2189ft 0kts
03-Jun-16 19:38 36.079814 -115.147337 57 2189ft 0kts
03-Jun-16 19:39 36.079886 -115.147902 145 2189ft 0kts
03-Jun-16 19:40 36.079908 -115.147920 145 2189ft 0kts
03-Jun-16 19:41 36.079908 -115.147920 145 2189ft 0kts
03-Jun-16 19:42 36.079174 -115.148139 191 2189ft 0kts
03-Jun-16 19:43 36.078686 -115.150003 270 2189ft 14kts
03-Jun-16 19:44 36.078030 -115.155684 269 2189ft 16kts
03-Jun-16 19:45 36.078020 -115.160466 269 2189ft 9kts
03-Jun-16 19:46 36.077674 -115.161240 182 2189ft 3kts
03-Jun-16 19:47 36.077412 -115.161248 179 2189ft 0kts
03-Jun-16 19:48 36.077412 -115.161248 179 2189ft 0kts
03-Jun-16 19:49 36.077412 -115.161248 179 2189ft 0kts
03-Jun-16 19:50 36.076359 -115.153349 88 2189ft 95kts
03-Jun-16 19:50 36.075942 -115.108643 88 2864ft 204kts
03-Jun-16 19:51 36.072504 -115.028831 88 4854ft 254kts
03-Jun-16 19:52 36.054991 -114.944994 153 6847ft 298kts
03-Jun-16 19:54 35.963658 -114.910187 188 10336ft 318kts
03-Jun-16 19:54 35.904998 -114.971102 226 11998ft 353kts
03-Jun-16 19:55 35.835874 -115.058806 225 14670ft 367kts
03-Jun-16 19:56 35.768555 -115.154251 230 17069ft 382kts
03-Jun-16 19:57 35.701648 -115.256800 231 19207ft 395kts
03-Jun-16 19:58 35.604922 -115.298843 182 21036ft 407kts
03-Jun-16 19:59 35.491518 -115.303520 181 22831ft 419kts
03-Jun-16 20:00 35.375791 -115.309220 181 24556ft 428kts
03-Jun-16 20:01 35.257064 -115.314769 181 26283ft 432kts
03-Jun-16 20:02 35.137996 -115.319028 181 27917ft 435kts
03-Jun-16 20:03 35.025104 -115.368173 200 27903ft 437kts
03-Jun-16 20:04 34.911628 -115.418225 200 27888ft 436kts
03-Jun-16 20:05 34.803294 -115.466058 200 27894ft 442kts
03-Jun-16 20:06 34.687265 -115.517143 200 27946ft 448kts
03-Jun-16 20:07 34.570468 -115.568414 199 27517ft 462kts
03-Jun-16 20:08 34.449397 -115.621399 199 26409ft 463kts
03-Jun-16 20:09 34.330111 -115.672420 198 25228ft 460kts
03-Jun-16 20:10 34.211839 -115.723790 199 23653ft 452kts
03-Jun-16 20:11 34.099065 -115.772858 195 21570ft 425kts
03-Jun-16 20:12 33.989321 -115.807131 191 19592ft 397kts
03-Jun-16 20:13 33.883397 -115.838226 191 17945ft 390kts
03-Jun-16 20:14 33.779483 -115.868608 191 16946ft 384kts
03-Jun-16 20:15 33.677250 -115.898433 191 15950ft 377kts
03-Jun-16 20:16 33.577012 -115.927599 191 15121ft 371kts
03-Jun-16 20:17 33.490996 -115.984320 233 14571ft 373kts
03-Jun-16 20:18 33.434469 -116.082693 234 14178ft 357kts
03-Jun-16 20:20 33.379468 -116.178127 234 13784ft 353kts
03-Jun-16 20:21 33.315247 -116.263041 206 13386ft 350kts
03-Jun-16 20:22 33.228690 -116.313740 205 12989ft 346kts
03-Jun-16 20:23 33.143524 -116.363553 205 12593ft 340kts
03-Jun-16 20:24 33.060901 -116.411795 205 12182ft 320kts
03-Jun-16 20:25 32.976806 -116.461354 206 11963ft 387kts
03-Jun-16 20:26 32.881118 -116.517544 205 13117ft 352kts
03-Jun-16 20:27 32.815796 -116.590416 239 11645ft 327kts
03-Jun-16 20:28 32.772244 -116.681883 239 9945ft 309kts
03-Jun-16 20:29 32.732058 -116.768666 240 9378ft 294kts
03-Jun-16 20:30 32.701001 -116.840990 249 8198ft 263kts
03-Jun-16 20:31 32.677430 -116.918824 250 6554ft 247kts
03-Jun-16 20:32 32.684335 -116.988547 285 4882ft 194kts
03-Jun-16 20:33 32.697907 -117.044142 285 3944ft 161kts
03-Jun-16 20:34 32.710302 -117.094871 286 2112ft 166kts
03-Jun-16 20:35 32.722592 -117.144015 284 1152ft 166kts
03-Jun-16 20:36 32.734259 -117.192732 284 25ft 127kts
03-Jun-16 20:37 32.735325 -117.201659 99 24ft 6kts
03-Jun-16 20:38 32.734113 -117.196355 104 24ft 17kts
03-Jun-16 20:39 32.732310 -117.194923 251 24ft 3kts
03-Jun-16 20:40 32.732579 -117.195505 311 24ft 0kts
03-Jun-16 20:41 32.732579 -117.195505 311 24ft 0kts
03-Jun-16 20:42 32.732579 -117.195505 311 24ft 0kts

Navigation Log

Ident Type
Flight plan parsing failed, navigation log unavailable